createdAt,value
2018-12-05T11:06:46.231Z,5.00
2018-12-05T11:07:46.026Z,4.50
2018-12-05T11:09:39.173Z,5.30
2018-12-05T11:10:38.876Z,4.50
2018-12-05T11:12:33.590Z,5.00
2018-12-05T11:13:33.307Z,4.90
2018-12-05T11:15:26.876Z,5.00
2018-12-05T11:16:26.816Z,4.60
2018-12-05T11:18:21.417Z,4.70
2018-12-05T11:19:20.676Z,4.90
2018-12-05T11:21:15.022Z,4.70
2018-12-05T11:22:15.610Z,4.50
2018-12-05T11:23:14.896Z,4.50
2018-12-05T11:24:15.095Z,4.30
2018-12-05T11:25:14.735Z,4.90
2018-12-05T11:26:14.660Z,4.50
2018-12-05T11:27:14.624Z,4.70
2018-12-05T11:28:14.598Z,4.80
2018-12-05T11:29:14.580Z,4.50
2018-12-05T11:30:14.525Z,4.30
2018-12-05T11:31:14.513Z,4.60
2018-12-05T11:32:14.507Z,4.50
2018-12-05T11:33:14.421Z,4.40
2018-12-05T11:34:14.405Z,4.60
2018-12-05T11:35:14.385Z,4.50
2018-12-05T11:36:14.347Z,4.10
2018-12-05T11:37:14.285Z,4.30
2018-12-05T11:38:14.246Z,4.40
2018-12-05T11:39:14.248Z,4.20
2018-12-05T11:40:14.190Z,4.60
2018-12-05T11:41:14.266Z,3.90
2018-12-05T11:42:14.111Z,4.00
2018-12-05T11:43:14.092Z,4.70
2018-12-05T11:44:14.073Z,4.40
2018-12-05T11:45:14.018Z,4.60
2018-12-05T11:46:13.991Z,4.00
2018-12-05T11:47:13.950Z,4.40
2018-12-05T11:48:13.916Z,4.00
2018-12-05T11:49:14.029Z,4.00
2018-12-05T11:50:13.868Z,4.40
2018-12-05T11:51:13.810Z,3.80
2018-12-05T11:52:13.794Z,4.00
2018-12-05T11:53:13.745Z,3.80
2018-12-05T11:54:13.708Z,4.00
2018-12-05T11:55:13.690Z,3.70
2018-12-05T11:56:13.637Z,4.40
2018-12-05T11:57:13.586Z,4.00
2018-12-05T11:58:13.563Z,4.30
2018-12-05T11:59:13.527Z,4.20
2018-12-05T12:00:13.487Z,3.90
2018-12-05T12:01:13.448Z,3.80
2018-12-05T12:02:13.396Z,4.40
2018-12-05T12:03:13.407Z,3.90
2018-12-05T12:04:13.336Z,4.40
2018-12-05T12:05:13.294Z,4.10
2018-12-05T12:06:13.259Z,4.40
2018-12-05T12:07:13.218Z,4.40
2018-12-05T12:08:13.170Z,3.70
2018-12-05T12:09:13.156Z,3.60
2018-12-05T12:10:13.099Z,3.60
2018-12-05T12:11:13.057Z,3.80
2018-12-05T12:12:13.012Z,4.20
2018-12-05T12:13:12.990Z,3.80
2018-12-05T12:14:12.939Z,3.50
2018-12-05T12:15:12.901Z,4.00
2018-12-05T12:16:12.849Z,3.80
2018-12-05T12:17:12.817Z,3.80
2018-12-05T12:18:12.796Z,4.30
2018-12-05T12:19:12.727Z,3.80
2018-12-05T12:20:12.696Z,3.20
2018-12-05T12:21:12.659Z,3.30
2018-12-05T12:22:12.618Z,3.40
2018-12-05T12:23:12.620Z,3.20
2018-12-05T12:24:12.526Z,3.60
2018-12-05T12:25:12.487Z,3.10
2018-12-05T12:26:12.487Z,3.20
2018-12-05T12:27:12.398Z,3.30
2018-12-05T12:28:12.481Z,3.00
2018-12-05T12:29:12.328Z,3.10
2018-12-05T12:30:15.807Z,3.40
2018-12-05T12:31:12.243Z,3.00
2018-12-05T12:32:12.197Z,3.10
2018-12-05T12:33:12.160Z,3.50
2018-12-05T12:34:12.131Z,2.90
2018-12-05T12:35:12.117Z,3.10
2018-12-05T12:36:12.039Z,3.30
2018-12-05T12:37:12.018Z,3.00
2018-12-05T12:38:11.945Z,3.00
2018-12-05T12:39:11.910Z,3.20
2018-12-05T12:40:12.417Z,2.90
2018-12-05T12:41:11.848Z,3.10
2018-12-05T12:42:11.837Z,2.90
2018-12-05T12:43:11.730Z,3.00
2018-12-05T12:44:11.706Z,3.00
2018-12-05T12:45:11.667Z,3.00
2018-12-05T12:46:11.608Z,3.00
2018-12-05T12:47:11.572Z,2.90
2018-12-05T12:48:11.526Z,3.50
2018-12-05T12:49:11.482Z,3.10
2018-12-05T12:50:11.447Z,3.30
2018-12-05T12:51:11.421Z,2.60
2018-12-05T12:52:11.351Z,2.70
2018-12-05T12:53:11.312Z,2.70
2018-12-05T12:54:11.269Z,3.20
2018-12-05T12:55:11.234Z,2.90
2018-12-05T12:56:11.196Z,2.90
2018-12-05T12:57:11.139Z,3.20
2018-12-05T12:58:11.128Z,2.80
2018-12-05T12:59:11.666Z,3.00
2018-12-05T13:00:11.039Z,3.30
2018-12-05T13:01:10.980Z,2.70
2018-12-05T13:02:10.938Z,3.20
2018-12-05T13:03:10.902Z,3.00
2018-12-05T13:04:12.732Z,2.80
2018-12-05T13:05:10.893Z,2.90
2018-12-05T13:06:10.807Z,3.30
2018-12-05T13:07:10.726Z,3.00
2018-12-05T13:08:10.686Z,2.60
2018-12-05T13:09:10.634Z,2.90
2018-12-05T13:10:10.623Z,3.00
2018-12-05T13:11:10.569Z,2.80
2018-12-05T13:12:10.504Z,2.80
2018-12-05T13:13:10.478Z,2.90
2018-12-05T13:14:10.431Z,3.10
2018-12-05T13:15:10.386Z,2.70
2018-12-05T13:16:10.346Z,3.00
2018-12-05T13:17:10.306Z,3.10
2018-12-05T13:18:10.259Z,2.70
2018-12-05T13:19:10.209Z,2.80
2018-12-05T13:20:10.163Z,2.60
2018-12-05T13:21:10.138Z,2.90
2018-12-05T13:22:10.085Z,3.10
2018-12-05T13:23:10.046Z,3.10
2018-12-05T13:24:10.018Z,2.80
2018-12-05T13:25:09.966Z,2.80
2018-12-05T13:26:09.902Z,2.70
2018-12-05T13:27:09.899Z,2.80
2018-12-05T13:28:09.876Z,2.90
2018-12-05T13:29:09.785Z,3.10
2018-12-05T13:30:09.726Z,2.80
2018-12-05T13:31:09.710Z,2.70
2018-12-05T13:32:09.665Z,2.80
2018-12-05T13:33:09.600Z,2.90
2018-12-05T13:34:09.570Z,3.20
2018-12-05T13:35:09.541Z,2.90
2018-12-05T13:36:09.477Z,3.20
2018-12-05T13:37:09.427Z,3.00
2018-12-05T13:38:09.408Z,2.80
2018-12-05T13:39:09.350Z,3.60
2018-12-05T13:40:09.345Z,4.00
2018-12-05T13:41:09.283Z,3.20
2018-12-05T13:42:09.254Z,3.10
2018-12-05T13:43:09.172Z,3.00
2018-12-05T13:44:09.139Z,3.30
2018-12-05T13:45:09.102Z,2.80
2018-12-05T13:46:09.066Z,2.70
2018-12-05T13:47:09.018Z,2.70
2018-12-05T13:48:08.967Z,3.30
2018-12-05T13:49:08.928Z,3.50
2018-12-05T13:50:08.881Z,2.60
2018-12-05T13:51:08.835Z,3.30
2018-12-05T13:52:08.802Z,2.40
2018-12-05T13:53:08.754Z,2.70
2018-12-05T13:54:08.710Z,3.20
2018-12-05T13:55:08.663Z,3.50
2018-12-05T13:56:08.714Z,3.40
2018-12-05T13:57:08.579Z,3.80
2018-12-05T13:58:08.537Z,3.30
2018-12-05T13:59:08.499Z,3.40
2018-12-05T14:00:08.453Z,3.60
2018-12-05T14:01:08.411Z,3.20
2018-12-05T14:02:08.374Z,3.20
2018-12-05T14:03:08.310Z,3.80
2018-12-05T14:04:08.291Z,2.70
2018-12-05T14:05:08.248Z,3.30
2018-12-05T14:06:08.219Z,3.10
2018-12-05T14:07:08.139Z,3.10
2018-12-05T14:08:08.112Z,3.20
2018-12-05T14:09:08.060Z,2.80
2018-12-05T14:10:08.019Z,3.40
2018-12-05T14:11:07.970Z,3.70
2018-12-05T14:12:07.933Z,3.50
2018-12-05T14:13:07.878Z,3.80
2018-12-05T14:14:07.837Z,3.20
2018-12-05T14:15:07.796Z,3.30
2018-12-05T14:16:07.764Z,3.20
2018-12-05T14:17:07.714Z,3.20
2018-12-05T14:18:07.677Z,3.30
2018-12-05T14:19:07.658Z,3.10
2018-12-05T14:20:07.584Z,3.10
2018-12-05T14:21:07.578Z,2.80
2018-12-05T14:22:07.528Z,3.60
2018-12-05T14:23:07.456Z,3.40
2018-12-05T14:24:07.408Z,3.10
2018-12-05T14:25:07.368Z,3.30
2018-12-05T14:26:07.324Z,3.40
2018-12-05T14:27:07.310Z,3.40
2018-12-05T14:28:07.249Z,2.90
2018-12-05T14:29:07.207Z,3.60
2018-12-05T14:30:07.156Z,3.40
2018-12-05T14:31:07.118Z,3.30
2018-12-05T14:32:07.074Z,3.40
2018-12-05T14:33:07.021Z,3.10
2018-12-05T14:34:06.992Z,3.10
2018-12-05T14:35:06.990Z,3.80
2018-12-05T14:36:06.918Z,3.40
2018-12-05T14:37:06.848Z,3.70
2018-12-05T14:38:06.802Z,3.50
2018-12-05T14:39:06.768Z,3.20
2018-12-05T14:40:06.732Z,3.60
2018-12-05T14:41:06.677Z,3.00
2018-12-05T14:42:06.649Z,3.10
2018-12-05T14:43:06.605Z,3.50
2018-12-05T14:44:06.550Z,3.70
2018-12-05T14:45:06.501Z,3.80
2018-12-05T14:46:07.372Z,2.90
2018-12-05T14:47:06.417Z,3.70
2018-12-05T14:48:06.384Z,4.10
2018-12-05T14:49:06.329Z,3.30
2018-12-05T14:50:06.284Z,3.10
2018-12-05T14:51:06.255Z,4.30
2018-12-05T14:52:06.223Z,4.40
2018-12-05T14:53:06.177Z,3.60
2018-12-05T14:54:06.116Z,3.70
2018-12-05T14:55:06.097Z,2.70
2018-12-05T14:56:06.044Z,3.30
2018-12-05T14:57:05.985Z,3.40
2018-12-05T14:58:05.942Z,4.20
2018-12-05T14:59:05.910Z,3.70
2018-12-05T15:00:05.869Z,4.80
2018-12-05T15:01:05.819Z,5.00
2018-12-05T15:02:05.772Z,3.80
2018-12-05T15:03:05.719Z,4.50
2018-12-05T15:04:05.692Z,4.30
2018-12-05T15:05:05.635Z,4.30
2018-12-05T15:06:05.594Z,4.20
2018-12-05T15:07:05.543Z,3.30
2018-12-05T15:08:05.497Z,4.20
2018-12-05T15:09:05.449Z,3.70
2018-12-05T15:10:05.418Z,3.60
2018-12-05T15:11:05.386Z,3.50
2018-12-05T15:12:05.316Z,3.30
2018-12-05T15:13:05.294Z,3.90
2018-12-05T15:14:05.242Z,3.50
2018-12-05T15:15:05.200Z,4.20
2018-12-05T15:16:05.156Z,5.00
2018-12-05T15:17:05.121Z,4.90
2018-12-05T15:18:05.079Z,4.40
2018-12-05T15:19:05.018Z,4.50
2018-12-05T15:20:04.993Z,4.00
2018-12-05T15:21:04.933Z,4.50
2018-12-05T15:22:04.888Z,4.20
2018-12-05T15:23:04.844Z,4.10
2018-12-05T15:24:04.819Z,3.40
2018-12-05T15:25:04.775Z,3.20
2018-12-05T15:26:04.731Z,4.10
2018-12-05T15:27:04.690Z,4.50
2018-12-05T15:28:04.635Z,3.70
2018-12-05T15:29:04.566Z,3.20
2018-12-05T15:30:04.552Z,3.30
2018-12-05T15:31:04.486Z,3.50
2018-12-05T15:32:04.448Z,3.50
2018-12-05T15:33:04.406Z,3.00
2018-12-05T15:34:04.356Z,3.50
2018-12-05T15:35:04.304Z,3.10
2018-12-05T15:36:04.277Z,3.50
2018-12-05T15:37:04.224Z,3.40
2018-12-05T15:38:04.194Z,3.10
2018-12-05T15:39:04.147Z,3.20
2018-12-05T15:40:04.105Z,3.70
2018-12-05T15:41:04.058Z,3.40
2018-12-05T15:42:04.078Z,4.10
2018-12-05T15:43:03.958Z,3.90
2018-12-05T15:44:03.953Z,4.10
2018-12-05T15:45:03.886Z,4.90
2018-12-05T15:46:03.992Z,4.50
2018-12-05T15:47:03.831Z,3.90
2018-12-05T15:48:03.768Z,4.40
2018-12-05T15:49:03.691Z,3.30
2018-12-05T15:50:03.850Z,3.30
2018-12-05T15:51:03.638Z,3.60
2018-12-05T15:52:03.560Z,3.90
2018-12-05T15:53:03.523Z,3.90
2018-12-05T15:54:03.473Z,3.40
2018-12-05T15:55:03.443Z,3.90
2018-12-05T15:56:03.400Z,3.40
2018-12-05T15:57:09.693Z,3.40
2018-12-05T15:58:03.323Z,3.70
2018-12-05T15:59:03.243Z,3.40
2018-12-05T16:00:03.212Z,3.60
2018-12-05T16:01:03.161Z,4.30
2018-12-05T16:02:03.114Z,4.40
2018-12-05T16:03:03.087Z,3.90
2018-12-05T16:04:03.132Z,4.30
2018-12-05T16:05:02.994Z,3.50
2018-12-05T16:06:02.982Z,3.80
2018-12-05T16:07:04.764Z,3.90
2018-12-05T16:08:03.000Z,3.80
2018-12-05T16:09:02.810Z,4.00
2018-12-05T16:10:02.826Z,4.00
2018-12-05T16:11:02.732Z,3.90
2018-12-05T16:12:02.669Z,4.10
2018-12-05T16:13:02.701Z,4.00
2018-12-05T16:14:02.588Z,3.90
2018-12-05T16:15:02.561Z,3.90
2018-12-05T16:16:02.514Z,4.20
2018-12-05T16:17:02.456Z,4.20
2018-12-05T16:18:02.422Z,4.30
2018-12-05T16:19:02.354Z,4.50
2018-12-05T16:20:02.308Z,4.40
2018-12-05T16:21:02.255Z,4.00
2018-12-05T16:22:02.219Z,3.90
2018-12-05T16:23:02.208Z,4.10
2018-12-05T16:24:02.184Z,4.30
2018-12-05T16:25:02.085Z,3.90
2018-12-05T16:26:02.043Z,4.00
2018-12-05T16:27:02.000Z,4.20
2018-12-05T16:28:01.958Z,4.10
2018-12-05T16:29:01.971Z,4.10
2018-12-05T16:30:01.864Z,4.40
2018-12-05T16:31:01.829Z,4.30
2018-12-05T16:32:01.758Z,4.20
2018-12-05T16:33:01.725Z,3.80
2018-12-05T16:34:01.674Z,4.50
2018-12-05T16:35:01.708Z,4.30
2018-12-05T16:36:01.601Z,4.20
2018-12-05T16:37:01.537Z,4.20
2018-12-05T16:38:01.544Z,4.60
2018-12-05T16:39:01.492Z,4.50
2018-12-05T16:40:01.404Z,4.20
2018-12-05T16:41:01.392Z,4.20
2018-12-05T16:42:01.346Z,4.50
2018-12-05T16:43:01.271Z,4.50
2018-12-05T16:44:01.239Z,5.00
2018-12-05T16:45:01.193Z,4.50
2018-12-05T16:46:01.136Z,4.70
2018-12-05T16:47:01.097Z,4.70
2018-12-05T16:48:01.055Z,4.60
2018-12-05T16:49:01.011Z,5.20
2018-12-05T16:50:00.994Z,4.80
2018-12-05T16:51:00.921Z,4.90
2018-12-05T16:52:00.868Z,4.60
2018-12-05T16:53:00.823Z,4.80
2018-12-05T16:54:00.776Z,4.80
2018-12-05T16:55:00.717Z,4.60
2018-12-05T16:56:00.677Z,4.70
2018-12-05T16:57:00.640Z,5.00
2018-12-05T16:58:00.591Z,4.90
2018-12-05T16:59:00.544Z,4.90
2018-12-05T17:00:00.511Z,7.00
2018-12-05T17:01:00.438Z,5.30
2018-12-05T17:02:00.411Z,5.80
2018-12-05T17:03:00.391Z,5.50
2018-12-05T17:04:00.344Z,5.30
2018-12-05T17:05:00.278Z,6.00
2018-12-05T17:06:00.238Z,5.90
2018-12-05T17:07:00.208Z,5.70
2018-12-05T17:08:00.150Z,6.20
2018-12-05T17:09:01.461Z,5.40
2018-12-05T17:10:00.062Z,6.60
2018-12-05T17:11:00.002Z,8.10
2018-12-05T17:11:59.973Z,6.60
2018-12-05T17:12:59.935Z,6.10
2018-12-05T17:13:59.891Z,9.10
2018-12-05T17:14:59.853Z,7.20
2018-12-05T17:15:59.789Z,6.20
2018-12-05T17:16:59.742Z,6.00
2018-12-05T17:17:59.678Z,8.90
2018-12-05T17:18:59.642Z,8.30
2018-12-05T17:19:59.620Z,8.20
2018-12-05T17:20:59.572Z,9.10
2018-12-05T17:21:59.541Z,9.20
2018-12-05T17:22:59.499Z,8.90
2018-12-05T17:23:59.441Z,8.50
2018-12-05T17:24:59.396Z,8.60
2018-12-05T17:25:59.317Z,8.60
2018-12-05T17:26:59.309Z,7.90
2018-12-05T17:27:59.266Z,7.80
2018-12-05T17:28:59.189Z,7.80
2018-12-05T17:29:59.143Z,8.80
2018-12-05T17:30:59.107Z,7.70
2018-12-05T17:31:59.053Z,8.00
2018-12-05T17:32:59.014Z,8.40
2018-12-05T17:34:00.801Z,7.70
2018-12-05T17:34:58.939Z,7.70
2018-12-05T17:35:58.896Z,8.00
2018-12-05T17:36:58.857Z,8.30
2018-12-05T17:37:58.797Z,8.30
2018-12-05T17:38:58.754Z,7.60
2018-12-05T17:39:58.710Z,7.50
2018-12-05T17:40:58.653Z,7.80
2018-12-05T17:41:58.610Z,8.60
2018-12-05T17:42:58.571Z,6.70
2018-12-05T17:43:58.520Z,7.10
2018-12-05T17:44:58.492Z,7.50
2018-12-05T17:45:58.452Z,6.70
2018-12-05T17:46:58.390Z,6.40
2018-12-05T17:47:58.340Z,6.30
2018-12-05T17:48:58.303Z,6.10
2018-12-05T17:49:58.263Z,7.10
2018-12-05T17:50:58.218Z,5.90
2018-12-05T17:51:58.170Z,6.20
2018-12-05T17:52:58.120Z,6.30
2018-12-05T17:53:58.079Z,6.30
2018-12-05T17:54:58.046Z,6.30
2018-12-05T17:55:57.993Z,6.60
2018-12-05T17:56:57.957Z,5.60
2018-12-05T17:57:57.907Z,5.50
2018-12-05T17:58:57.863Z,6.30
2018-12-05T17:59:57.817Z,6.20
2018-12-05T18:00:57.759Z,6.20
2018-12-05T18:01:57.751Z,5.90
2018-12-05T18:02:57.688Z,6.00
2018-12-05T18:03:57.642Z,6.20
2018-12-05T18:04:57.600Z,6.30
2018-12-05T18:05:57.602Z,6.20
2018-12-05T18:06:57.540Z,6.30
2018-12-05T18:07:57.467Z,6.30
2018-12-05T18:08:57.501Z,5.90
2018-12-05T18:09:57.471Z,5.80
2018-12-05T18:10:57.365Z,5.80
2018-12-05T18:11:57.284Z,5.90
2018-12-05T18:12:57.267Z,6.60
2018-12-05T18:13:57.207Z,5.80
2018-12-05T18:14:57.260Z,5.80
2018-12-05T18:15:57.117Z,6.20
2018-12-05T18:16:57.055Z,5.40
2018-12-05T18:17:57.014Z,5.70
2018-12-05T18:18:56.977Z,5.50
2018-12-05T18:19:56.935Z,5.40
2018-12-05T18:20:56.888Z,5.70
2018-12-05T18:21:56.846Z,5.10
2018-12-05T18:22:56.818Z,5.70
2018-12-05T18:23:56.851Z,6.10
2018-12-05T18:24:56.708Z,5.40
2018-12-05T18:25:56.656Z,5.90
2018-12-05T18:26:56.631Z,5.30
2018-12-05T18:27:56.586Z,5.00
2018-12-05T18:28:56.563Z,5.80
2018-12-05T18:29:56.509Z,6.30
2018-12-05T18:30:56.444Z,5.30
2018-12-05T18:31:56.393Z,5.30
2018-12-05T18:32:56.405Z,5.40
2018-12-05T18:33:56.308Z,5.90
2018-12-05T18:34:56.253Z,5.50
2018-12-05T18:35:56.234Z,5.90
2018-12-05T18:36:56.192Z,5.50
2018-12-05T18:37:56.230Z,4.90
2018-12-05T18:38:56.203Z,5.60
2018-12-05T18:39:56.082Z,5.90
2018-12-05T18:40:56.063Z,5.50
2018-12-05T18:41:55.964Z,5.40
2018-12-05T18:42:55.933Z,5.80
2018-12-05T18:43:55.871Z,4.70
2018-12-05T18:44:55.835Z,5.00
2018-12-05T18:45:55.940Z,5.10
2018-12-05T18:46:55.756Z,5.20
2018-12-05T18:47:55.802Z,4.70
2018-12-05T18:48:55.671Z,4.60
2018-12-05T18:49:55.726Z,4.80
2018-12-05T18:50:55.670Z,5.10
2018-12-05T18:51:56.435Z,5.10
2018-12-05T18:52:55.507Z,5.10
2018-12-05T18:53:55.463Z,5.00
2018-12-05T18:54:55.387Z,4.80
2018-12-05T18:55:55.409Z,5.00
2018-12-05T18:56:55.323Z,5.80
2018-12-05T18:57:55.296Z,4.50
2018-12-05T18:58:55.235Z,5.30
2018-12-05T19:00:01.274Z,5.20
2018-12-05T19:00:55.131Z,5.10
2018-12-05T19:01:55.245Z,4.60
2018-12-05T19:02:55.150Z,5.10
2018-12-05T19:03:55.101Z,4.50
2018-12-05T19:04:54.952Z,4.50
2018-12-05T19:05:54.914Z,5.10
2018-12-05T19:06:54.871Z,5.40
2018-12-05T19:07:54.818Z,5.30
2018-12-05T19:08:54.780Z,4.90
2018-12-05T19:09:54.741Z,4.90
2018-12-05T19:10:54.720Z,5.30
2018-12-05T19:11:54.671Z,4.70
2018-12-05T19:12:54.619Z,4.90
2018-12-05T19:13:54.572Z,5.20
2018-12-05T19:14:54.512Z,4.60
2018-12-05T19:15:54.469Z,4.70
2018-12-05T19:16:54.439Z,4.60
2018-12-05T19:17:54.380Z,4.80
2018-12-05T19:18:54.342Z,4.90
2018-12-05T19:19:54.295Z,5.20
2018-12-05T19:20:54.255Z,5.30
2018-12-05T19:21:54.340Z,5.20
2018-12-05T19:22:54.202Z,5.00
2018-12-05T19:23:54.116Z,4.90
2018-12-05T19:24:54.074Z,4.50
2018-12-05T19:25:54.151Z,5.10
2018-12-05T19:26:54.005Z,4.90
2018-12-05T19:27:54.020Z,4.30
2018-12-05T19:28:53.893Z,3.90
2018-12-05T19:29:53.862Z,4.50
2018-12-05T19:30:53.810Z,4.70
2018-12-05T19:31:54.711Z,4.90
2018-12-05T19:32:53.742Z,5.00
2018-12-05T19:33:53.697Z,4.20
2018-12-05T19:34:53.660Z,4.50
2018-12-05T19:35:53.595Z,4.50
2018-12-05T19:36:53.551Z,4.30
2018-12-05T19:37:53.511Z,4.50
2018-12-05T19:38:53.485Z,4.80
2018-12-05T19:39:53.426Z,4.50
2018-12-05T19:40:53.381Z,4.80
2018-12-05T19:41:53.339Z,4.10
2018-12-05T19:42:53.301Z,4.20
2018-12-05T19:43:53.277Z,4.60
2018-12-05T19:44:53.205Z,4.80
2018-12-05T19:45:53.163Z,4.70
2018-12-05T19:46:53.117Z,4.20
2018-12-05T19:47:53.079Z,4.50
2018-12-05T19:48:53.028Z,4.90
2018-12-05T19:49:53.042Z,4.70
2018-12-05T19:50:52.953Z,4.40
2018-12-05T19:51:54.701Z,4.60
2018-12-05T19:52:52.907Z,4.50
2018-12-05T19:53:52.822Z,4.30
2018-12-05T19:55:05.476Z,4.40
2018-12-05T19:55:55.691Z,4.50
2018-12-05T19:56:52.691Z,4.40
2018-12-05T19:57:52.720Z,4.90
2018-12-05T19:58:52.620Z,4.40
2018-12-05T19:59:52.556Z,4.80
2018-12-05T20:00:52.584Z,4.50
2018-12-05T20:01:53.327Z,4.80
2018-12-05T20:02:52.477Z,4.50
2018-12-05T20:03:52.487Z,4.20
2018-12-05T20:04:52.433Z,4.70
2018-12-05T20:05:52.295Z,4.30
2018-12-05T20:06:52.273Z,4.50
2018-12-05T20:07:52.221Z,4.80
2018-12-05T20:08:52.181Z,4.80
2018-12-05T20:09:52.130Z,5.10
2018-12-05T20:10:52.088Z,4.90
2018-12-05T20:11:52.094Z,4.40
2018-12-05T20:12:51.989Z,4.70
2018-12-05T20:13:51.947Z,4.50
2018-12-05T20:14:51.906Z,4.40
2018-12-05T20:15:51.857Z,5.00
2018-12-05T20:16:51.820Z,4.30
2018-12-05T20:17:51.789Z,4.30
2018-12-05T20:18:51.753Z,4.40
2018-12-05T20:19:51.702Z,4.70
2018-12-05T20:20:51.659Z,4.50
2018-12-05T20:21:51.615Z,4.10
2018-12-05T20:22:51.589Z,4.20
2018-12-05T20:23:51.517Z,4.30
2018-12-05T20:24:51.479Z,4.30
2018-12-05T20:25:51.460Z,4.30
2018-12-05T20:26:51.418Z,4.50
2018-12-05T20:27:51.358Z,4.30
2018-12-05T20:28:51.342Z,4.40
2018-12-05T20:29:51.253Z,3.90
2018-12-05T20:30:51.204Z,4.40
2018-12-05T20:31:51.166Z,4.20
2018-12-05T20:32:51.131Z,3.90
2018-12-05T20:33:51.086Z,4.40
2018-12-05T20:34:51.040Z,4.70
2018-12-05T20:35:51.025Z,4.60
2018-12-05T20:36:50.954Z,4.50
2018-12-05T20:37:50.928Z,3.80
2018-12-05T20:38:50.908Z,4.10
2018-12-05T20:39:50.839Z,4.50
2018-12-05T20:40:50.821Z,4.40
2018-12-05T20:41:50.765Z,4.30
2018-12-05T20:42:50.719Z,4.40
2018-12-05T20:43:50.641Z,4.80
2018-12-05T20:44:50.610Z,4.60
2018-12-05T20:45:50.551Z,4.30
2018-12-05T20:46:50.556Z,4.10
2018-12-05T20:47:50.530Z,4.10
2018-12-05T20:48:50.453Z,4.40
2018-12-05T20:49:50.389Z,4.60
2018-12-05T20:50:50.360Z,4.90
2018-12-05T20:51:50.328Z,4.90
2018-12-05T20:52:50.255Z,5.40
2018-12-05T20:53:50.228Z,4.60
2018-12-05T20:54:50.170Z,4.60
2018-12-05T20:55:50.136Z,4.30
2018-12-05T20:56:50.084Z,4.30
2018-12-05T20:57:50.037Z,4.90
2018-12-05T20:58:50.008Z,4.50
2018-12-05T20:59:49.956Z,3.90
2018-12-05T21:00:49.934Z,4.30
2018-12-05T21:01:49.886Z,4.50
2018-12-05T21:02:49.812Z,4.40
2018-12-05T21:03:49.806Z,4.60
2018-12-05T21:04:49.745Z,4.50
2018-12-05T21:05:49.689Z,4.50
2018-12-05T21:06:49.645Z,4.30
2018-12-05T21:07:49.602Z,4.50
2018-12-05T21:08:49.557Z,4.80
2018-12-05T21:09:49.615Z,4.50
2018-12-05T21:10:49.481Z,5.20
2018-12-05T21:11:49.440Z,4.70
2018-12-05T21:12:49.389Z,4.40
2018-12-05T21:13:49.347Z,4.50
2018-12-05T21:14:49.311Z,4.60
2018-12-05T21:15:49.292Z,4.40
2018-12-05T21:16:49.209Z,4.80
2018-12-05T21:17:49.177Z,4.90
2018-12-05T21:18:49.148Z,5.10
2018-12-05T21:19:49.084Z,4.30
2018-12-05T21:20:49.116Z,4.40
2018-12-05T21:21:48.999Z,4.60
2018-12-05T21:22:48.964Z,4.30
2018-12-05T21:23:48.937Z,4.90
2018-12-05T21:24:48.871Z,4.20
2018-12-05T21:25:48.847Z,4.30
2018-12-05T21:26:48.841Z,4.60
2018-12-05T21:27:48.735Z,4.40
2018-12-05T21:28:48.758Z,4.50
2018-12-05T21:29:48.708Z,4.10
2018-12-05T21:30:48.674Z,4.30
2018-12-05T21:31:48.631Z,4.50
2018-12-05T21:32:48.534Z,4.40
2018-12-05T21:33:48.489Z,4.40
2018-12-05T21:34:48.490Z,5.00
2018-12-05T21:35:48.406Z,4.20
2018-12-05T21:36:48.461Z,3.80
2018-12-05T21:37:48.316Z,4.40
2018-12-05T21:38:48.296Z,4.40
2018-12-05T21:39:48.233Z,4.20
2018-12-05T21:40:48.186Z,4.40
2018-12-05T21:41:48.142Z,4.60
2018-12-05T21:42:48.127Z,4.30
2018-12-05T21:43:48.042Z,4.10
2018-12-05T21:44:48.008Z,4.70
2018-12-05T21:45:47.981Z,4.80
2018-12-05T21:46:47.948Z,4.10
2018-12-05T21:47:47.870Z,4.80
2018-12-05T21:48:47.849Z,4.20
2018-12-05T21:49:47.821Z,4.20
2018-12-05T21:50:47.739Z,4.60
2018-12-05T21:51:47.711Z,3.90
2018-12-05T21:52:47.710Z,4.40
2018-12-05T21:53:47.630Z,3.80
2018-12-05T21:54:47.580Z,4.30
2018-12-05T21:55:47.536Z,4.40
2018-12-05T21:56:47.490Z,4.50
2018-12-05T21:57:47.510Z,4.50
2018-12-05T21:58:47.411Z,4.00
2018-12-05T21:59:47.478Z,4.20
2018-12-05T22:00:47.341Z,4.40
2018-12-05T22:01:47.299Z,4.50
2018-12-05T22:02:47.221Z,4.50
2018-12-05T22:03:47.178Z,4.40
2018-12-05T22:04:47.163Z,4.30
2018-12-05T22:05:47.266Z,4.50
2018-12-05T22:06:47.047Z,4.30
2018-12-05T22:07:47.006Z,4.20
2018-12-05T22:08:46.973Z,4.30
2018-12-05T22:09:46.924Z,4.40
2018-12-05T22:10:46.890Z,4.40
2018-12-05T22:11:46.863Z,4.90
2018-12-05T22:12:46.799Z,4.20
2018-12-05T22:13:46.761Z,4.40
2018-12-05T22:14:46.706Z,4.10
2018-12-05T22:15:46.722Z,4.20
2018-12-05T22:16:46.629Z,4.60
2018-12-05T22:17:46.592Z,4.10
2018-12-05T22:18:46.539Z,4.50
2018-12-05T22:19:46.507Z,4.60
2018-12-05T22:20:46.448Z,4.40
2018-12-05T22:21:46.431Z,4.10
2018-12-05T22:22:46.358Z,4.10
2018-12-05T22:23:46.315Z,4.10
2018-12-05T22:24:46.295Z,4.50
2018-12-05T22:25:46.227Z,4.00
2018-12-05T22:26:46.216Z,6.90
2018-12-05T22:27:46.163Z,5.90
2018-12-05T22:28:46.095Z,4.30
2018-12-05T22:29:46.086Z,6.10
2018-12-05T22:30:46.058Z,4.60
2018-12-05T22:31:45.969Z,4.40
2018-12-05T22:32:45.951Z,4.50
2018-12-05T22:33:45.899Z,4.10
2018-12-05T22:34:45.844Z,4.40
2018-12-05T22:35:45.816Z,4.30
2018-12-05T22:36:45.784Z,4.30
2018-12-05T22:37:45.720Z,4.30
2018-12-05T22:38:45.683Z,4.30
2018-12-05T22:39:45.629Z,4.60
2018-12-05T22:40:45.606Z,4.40
2018-12-05T22:41:45.558Z,5.20
2018-12-05T22:42:45.498Z,4.40
2018-12-05T22:43:45.465Z,4.70
2018-12-05T22:44:45.416Z,4.20
2018-12-05T22:45:45.367Z,4.60
2018-12-05T22:46:45.347Z,5.60
2018-12-05T22:47:45.311Z,5.50
2018-12-05T22:48:45.240Z,5.20
2018-12-05T22:49:45.205Z,4.70
2018-12-05T22:50:45.213Z,4.60
2018-12-05T22:51:45.123Z,4.40
2018-12-05T22:52:45.075Z,4.50
2018-12-05T22:53:45.043Z,4.90
2018-12-05T22:54:44.995Z,4.60
2018-12-05T22:55:44.952Z,4.70
2018-12-05T22:56:44.906Z,4.50
2018-12-05T22:57:44.859Z,4.70
2018-12-05T22:58:44.811Z,4.60
2018-12-05T22:59:44.791Z,4.40
2018-12-05T23:00:44.718Z,4.10
2018-12-05T23:01:44.674Z,4.50
2018-12-05T23:02:44.634Z,4.40
2018-12-05T23:03:44.597Z,5.20
2018-12-05T23:04:44.558Z,5.30
2018-12-05T23:05:44.514Z,4.60
2018-12-05T23:06:44.465Z,4.80
2018-12-05T23:07:44.424Z,4.80
2018-12-05T23:08:44.407Z,4.50
2018-12-05T23:09:44.340Z,5.20
2018-12-05T23:10:44.327Z,4.80
2018-12-05T23:11:44.253Z,4.90
2018-12-05T23:12:44.213Z,4.70
2018-12-05T23:13:44.165Z,5.10
2018-12-05T23:14:44.126Z,4.90
2018-12-05T23:15:44.085Z,5.00
2018-12-05T23:16:44.042Z,5.40
2018-12-05T23:17:43.995Z,4.90
2018-12-05T23:18:43.951Z,5.40
2018-12-05T23:19:43.937Z,5.30
2018-12-05T23:20:43.863Z,6.00
2018-12-05T23:21:43.832Z,5.10
2018-12-05T23:22:43.793Z,6.00
2018-12-05T23:23:43.742Z,5.60
2018-12-05T23:24:43.712Z,5.70
2018-12-05T23:25:43.691Z,5.50
2018-12-05T23:26:43.625Z,5.50
2018-12-05T23:27:43.634Z,5.20
2018-12-05T23:28:43.528Z,5.60
2018-12-05T23:29:43.498Z,5.90
2018-12-05T23:30:43.437Z,5.80
2018-12-05T23:31:43.406Z,5.60
2018-12-05T23:32:43.345Z,5.60
2018-12-05T23:33:43.340Z,6.10
2018-12-05T23:34:43.316Z,6.20
2018-12-05T23:35:43.220Z,5.50
2018-12-05T23:36:43.197Z,6.20
2018-12-05T23:37:43.144Z,6.30
2018-12-05T23:38:43.096Z,5.90
2018-12-05T23:39:43.050Z,6.20
2018-12-05T23:40:43.021Z,6.00
2018-12-05T23:41:42.960Z,6.00
2018-12-05T23:42:42.909Z,5.50
2018-12-05T23:43:42.888Z,6.60
2018-12-05T23:44:42.837Z,6.40
2018-12-05T23:45:42.798Z,6.00
2018-12-05T23:46:42.760Z,6.30
2018-12-05T23:47:42.731Z,5.90
2018-12-05T23:48:42.684Z,6.30
2018-12-05T23:49:42.624Z,6.30
2018-12-05T23:50:42.582Z,6.50
2018-12-05T23:51:42.564Z,6.30
2018-12-05T23:52:42.512Z,5.90
2018-12-05T23:53:42.450Z,5.70
2018-12-05T23:54:42.423Z,6.00
2018-12-05T23:55:42.356Z,6.80
2018-12-05T23:56:42.324Z,6.30
2018-12-05T23:57:42.282Z,6.80
2018-12-05T23:58:42.247Z,6.10
2018-12-05T23:59:42.216Z,6.40
